AirNav   Everest Fuels
 
 937 users online  

65AZ St Marys Helistop
Tucson, Arizona, USA

GOING TO TUCSON?


FAA INFORMATION EFFECTIVE 08 SEPTEMBER 2022

Location

FAA Identifier: 65AZ
Lat/Long: 32-13-41.7000N 110-59-57.7900W
32-13.695000N 110-59.963167W
32.2282500,-110.9993861
(estimated)
Elevation: 2345 ft. / 715 m (estimated)
Variation: 12E (1985)
From city: 1 mile W of TUCSON, AZ
Time zone: UTC -7 (year round; does not observe DST)
Zip code: 85745

Heliport Operations

Heliport use: Private use, MEDICAL.
Activation date: 11/1974
Control tower: no
ARTCC: ALBUQUERQUE CENTER
FSS: PRESCOTT FLIGHT SERVICE STATION
Attendance: UNATNDD
Wind indicator: yes
Segmented circle: no
Lights: SS-SR

Heliport Communications

WX ASOS at TUS (7 nm SE): PHONE 520-295-5727
WX AWOS-3 at RYN (10 nm SW): 133.35 (520-578-0269)
WX AWOS-3 at AVQ (16 nm NW): 118.375 (520-682-4104)

Nearby radio navigation aids

VOR radial/distance  VOR name  Freq  Var
TUSr320/9.1TUCSON VORTAC116.0012E

 
NDB name  Hdg/Dist  Freq  Var  ID
RYAN045/9.833812ERYN .-. -.-- -.
MARANA123/15.524512EAVQ .- ...- --.-
ROBLES051/20.522012ERBJ .-. -... .---

Heliport Services

Runway Information

Helipad H2

Dimensions: 60 x 60 ft. / 18 x 18 m
Surface: concrete
Latitude: 32-13.691167N
Longitude: 110-59.967000W
Elevation: 2345.0 ft.
Traffic pattern: leftleft

Helipad H1

Dimensions: 40 x 40 ft. / 12 x 12 m
Surface: asphalt/concrete
Runway edge lights: low intensity
Latitude: 32-13.698833N
Longitude: 110-59.959333W
Elevation: 2345.0 ft.
Traffic pattern: leftleft

Heliport Ownership and Management from official FAA records

Ownership: Privately-owned
Manager: JOHN TAYLOR
1601 W ST MARYS RD
TUCSON, AZ 85703
Phone 602-622-5833

Additional Remarks

FOR CD CTC TUCSON APCH AT 520-829-6121.

Instrument Procedures

There are no published instrument procedures at 65AZ.

Some nearby airports with instrument procedures:

KDMA - Davis Monthan Air Force Base (7 nm SE)
KTUS - Tucson International Airport (7 nm SE)
KRYN - Ryan Field Airport (10 nm SW)
KAVQ - Marana Regional Airport (16 nm NW)
P08 - Coolidge Municipal Airport (48 nm NW)
 
Loc | Ops | Rwys | IFR | FBO | Links
Com | Nav | Svcs | Stats | Notes
Area around 65AZ (St Marys Helistop)
 
Road maps at: MapQuest Bing Google
 
Aerial photo
No photo
 
Sectional chart

 
Airport distance calculator
Flying to St Marys Helistop? Find the distance to fly.

From to 65AZ

Sunrise and sunset
Times for 02-Oct-2022
 Local
(UTC-7)
 Zulu
(UTC)
Morning civil twilight05:5512:55
Sunrise06:2013:20
Sunset18:0701:07
Evening civil twilight18:3101:31

Current date and time
Zulu (UTC)  02-Oct-2022 20:06:43
Local (UTC-7)  02-Oct-2022 13:06:43
 
METAR
KTUS 
6nm SE 
021953Z VRB03KT 10SM CLR 32/12 A2998 RMK AO2 SLP105 T03170117
KDMA 
8nm SE 
021956Z AUTO 12006KT 10SM CLR 31/10 A2996 RMK AO2 SLP146 T03120100 $
KRYN 
10nm SW 
021945Z 15008KT 10SM CLR 31/10 A2995
KAVQ 
16nm NW 
021955Z AUTO 00000KT 10SM CLR 33/08 A2993 RMK AO2 T03310075
TAF
KTUS 
6nm SE 
021720Z 0218/0318 17007KT P6SM FEW110 FM022200 21008KT P6SM SCT100 FM030300 15008KT P6SM SCT100
KDMA 
8nm SE 
021400Z 0214/0320 16006KT 9999 SCT080 QNH2994INS BECMG 0220/0221 24009KT 9999 SCT080 QNH2992INS BECMG 0302/0303 VRB06KT 9999 SCT080 QNH2996INS BECMG 0307/0308 12006KT 9999 FEW090 QNH2997INS TX33/0221Z TN17/0312Z
NOTAMs
Click for the latest NOTAMs
NOTAMs are issued by the DoD/FAA and will open in a separate window not controlled by AirNav.

 

 
 

Would you like to see your business listed on this page?

 If your business provides an interesting product or service to pilots, flight crews, aircraft, or users of the St Marys Helistop, you should consider listing it here.  To start the listing process, click on the button below
 
Add a business
 

Other Pages about St Marys Helistop

Update a link
 
Copyright © AirNav, LLC. All rights reserved. Privacy Policy  Contact